sensor_id;sensor_type;location;lat;lon;timestamp;pressure;altitude;pressure_sealevel;temperature;humidity
57900;BME280;60605;53.716;19.940;2023-05-03T00:03:24;101138.25;;;2.22;93.12
57900;BME280;60605;53.716;19.940;2023-05-03T00:08:28;101136.53;;;2.11;93.27
57900;BME280;60605;53.716;19.940;2023-05-03T00:13:31;101132.45;;;2.04;94.30
57900;BME280;60605;53.716;19.940;2023-05-03T00:18:34;101131.10;;;2.00;95.11
57900;BME280;60605;53.716;19.940;2023-05-03T00:23:38;101141.71;;;1.96;95.36
57900;BME280;60605;53.716;19.940;2023-05-03T00:28:41;101145.86;;;1.87;95.05
57900;BME280;60605;53.716;19.940;2023-05-03T00:33:44;101148.05;;;1.74;94.79
57900;BME280;60605;53.716;19.940;2023-05-03T00:38:47;101145.95;;;1.63;94.98
57900;BME280;60605;53.716;19.940;2023-05-03T00:43:50;101140.35;;;1.52;95.18
57900;BME280;60605;53.716;19.940;2023-05-03T00:48:53;101141.55;;;1.42;95.57
57900;BME280;60605;53.716;19.940;2023-05-03T00:53:57;101146.17;;;1.34;96.16
57900;BME280;60605;53.716;19.940;2023-05-03T00:59:00;101151.01;;;1.29;96.51
57900;BME280;60605;53.716;19.940;2023-05-03T01:04:03;101153.39;;;1.23;96.91
57900;BME280;60605;53.716;19.940;2023-05-03T01:09:14;101150.86;;;1.17;97.24
57900;BME280;60605;53.716;19.940;2023-05-03T01:14:27;101150.06;;;1.11;97.54
57900;BME280;60605;53.716;19.940;2023-05-03T01:24:44;101152.29;;;1.02;98.20
57900;BME280;60605;53.716;19.940;2023-05-03T01:29:49;101154.46;;;0.96;98.40
57900;BME280;60605;53.716;19.940;2023-05-03T01:35:11;101156.95;;;0.92;98.68
57900;BME280;60605;53.716;19.940;2023-05-03T01:40:17;101152.70;;;0.85;98.52
57900;BME280;60605;53.716;19.940;2023-05-03T01:45:22;101155.27;;;0.79;98.66
57900;BME280;60605;53.716;19.940;2023-05-03T01:50:26;101166.92;;;0.74;99.05
57900;BME280;60605;53.716;19.940;2023-05-03T01:55:29;101168.21;;;0.69;99.09
57900;BME280;60605;53.716;19.940;2023-05-03T02:00:33;101166.25;;;0.62;99.06
57900;BME280;60605;53.716;19.940;2023-05-03T02:05:36;101168.54;;;0.58;99.48
57900;BME280;60605;53.716;19.940;2023-05-03T02:10:42;101167.44;;;0.51;99.29
57900;BME280;60605;53.716;19.940;2023-05-03T02:15:45;101167.23;;;0.48;99.90
57900;BME280;60605;53.716;19.940;2023-05-03T02:20:48;101165.96;;;0.45;100.00
57900;BME280;60605;53.716;19.940;2023-05-03T02:25:51;101167.02;;;0.41;99.98
57900;BME280;60605;53.716;19.940;2023-05-03T02:30:54;101174.72;;;0.37;100.00
57900;BME280;60605;53.716;19.940;2023-05-03T02:35:57;101174.40;;;0.33;99.96
57900;BME280;60605;53.716;19.940;2023-05-03T02:41:00;101178.20;;;0.26;99.68
57900;BME280;60605;53.716;19.940;2023-05-03T02:46:03;101182.69;;;0.20;99.88
57900;BME280;60605;53.716;19.940;2023-05-03T02:51:07;101181.80;;;0.20;100.00
57900;BME280;60605;53.716;19.940;2023-05-03T02:56:10;101183.29;;;0.22;100.00
57900;BME280;60605;53.716;19.940;2023-05-03T03:01:13;101181.29;;;0.24;100.00
57900;BME280;60605;53.716;19.940;2023-05-03T03:06:16;101181.92;;;0.25;100.00
57900;BME280;60605;53.716;19.940;2023-05-03T03:11:19;101184.04;;;0.29;100.00
57900;BME280;60605;53.716;19.940;2023-05-03T03:16:22;101192.17;;;0.32;100.00
57900;BME280;60605;53.716;19.940;2023-05-03T03:21:26;101190.16;;;0.37;100.00
57900;BME280;60605;53.716;19.940;2023-05-03T03:26:30;101197.48;;;0.43;100.00
57900;BME280;60605;53.716;19.940;2023-05-03T03:31:33;101197.26;;;0.48;100.00
57900;BME280;60605;53.716;19.940;2023-05-03T03:36:36;101190.90;;;0.57;100.00
57900;BME280;60605;53.716;19.940;2023-05-03T03:41:40;101190.82;;;0.70;100.00
57900;BME280;60605;53.716;19.940;2023-05-03T03:46:44;101193.48;;;0.89;100.00
57900;BME280;60605;53.716;19.940;2023-05-03T03:51:47;101196.45;;;1.16;100.00
57900;BME280;60605;53.716;19.940;2023-05-03T03:56:50;101198.91;;;2.03;100.00
57900;BME280;60605;53.716;19.940;2023-05-03T04:01:53;101207.23;;;3.54;100.00
57900;BME280;60605;53.716;19.940;2023-05-03T04:06:57;101206.98;;;5.26;99.99
57900;BME280;60605;53.716;19.940;2023-05-03T04:12:00;101214.05;;;6.97;96.52
57900;BME280;60605;53.716;19.940;2023-05-03T04:17:05;101218.20;;;8.62;90.47
57900;BME280;60605;53.716;19.940;2023-05-03T04:22:08;101216.89;;;10.01;82.84
57900;BME280;60605;53.716;19.940;2023-05-03T04:27:12;101215.48;;;11.20;78.83
57900;BME280;60605;53.716;19.940;2023-05-03T04:32:16;101216.07;;;12.41;74.62
57900;BME280;60605;53.716;19.940;2023-05-03T04:37:24;101209.65;;;13.41;69.72
57900;BME280;60605;53.716;19.940;2023-05-03T04:42:29;101215.73;;;14.22;66.89
57900;BME280;60605;53.716;19.940;2023-05-03T04:47:32;101223.66;;;15.11;63.99
57900;BME280;60605;53.716;19.940;2023-05-03T04:52:35;101226.95;;;15.84;60.62
57900;BME280;60605;53.716;19.940;2023-05-03T04:57:38;101230.16;;;16.49;57.98
57900;BME280;60605;53.716;19.940;2023-05-03T05:02:41;101228.64;;;17.14;55.28
57900;BME280;60605;53.716;19.940;2023-05-03T05:07:45;101234.31;;;17.67;54.10
57900;BME280;60605;53.716;19.940;2023-05-03T05:12:48;101238.50;;;18.35;52.53
57900;BME280;60605;53.716;19.940;2023-05-03T05:17:51;101244.67;;;19.09;50.48
57900;BME280;60605;53.716;19.940;2023-05-03T05:22:54;101253.02;;;19.75;48.38
57900;BME280;60605;53.716;19.940;2023-05-03T05:27:57;101260.54;;;20.41;47.27
57900;BME280;60605;53.716;19.940;2023-05-03T05:33:01;101260.93;;;21.13;45.53
57900;BME280;60605;53.716;19.940;2023-05-03T05:38:05;101261.59;;;21.78;43.64
57900;BME280;60605;53.716;19.940;2023-05-03T05:43:09;101270.64;;;22.37;42.31
57900;BME280;60605;53.716;19.940;2023-05-03T05:48:12;101270.22;;;23.00;40.82
57900;BME280;60605;53.716;19.940;2023-05-03T05:53:16;101275.14;;;23.47;39.40
57900;BME280;60605;53.716;19.940;2023-05-03T05:58:19;101278.86;;;24.02;38.71
57900;BME280;60605;53.716;19.940;2023-05-03T06:03:22;101283.58;;;24.61;37.52
57900;BME280;60605;53.716;19.940;2023-05-03T06:08:25;101285.21;;;25.26;36.30
57900;BME280;60605;53.716;19.940;2023-05-03T06:13:28;101288.46;;;25.86;35.36
57900;BME280;60605;53.716;19.940;2023-05-03T06:18:31;101295.20;;;26.62;34.69
57900;BME280;60605;53.716;19.940;2023-05-03T06:23:34;101302.33;;;27.35;33.13
57900;BME280;60605;53.716;19.940;2023-05-03T06:28:39;101311.86;;;28.05;32.41
57900;BME280;60605;53.716;19.940;2023-05-03T06:33:43;101316.13;;;28.65;30.95
57900;BME280;60605;53.716;19.940;2023-05-03T06:38:46;101318.83;;;28.97;29.66
57900;BME280;60605;53.716;19.940;2023-05-03T06:43:49;101319.59;;;29.20;29.30
57900;BME280;60605;53.716;19.940;2023-05-03T06:48:52;101316.23;;;29.76;28.73
57900;BME280;60605;53.716;19.940;2023-05-03T06:53:58;101314.59;;;30.31;27.13
57900;BME280;60605;53.716;19.940;2023-05-03T06:59:03;101313.32;;;30.92;26.40
57900;BME280;60605;53.716;19.940;2023-05-03T07:04:06;101316.23;;;31.56;25.19
57900;BME280;60605;53.716;19.940;2023-05-03T07:09:10;101322.63;;;32.05;24.39
57900;BME280;60605;53.716;19.940;2023-05-03T07:14:13;101325.36;;;32.55;23.32
57900;BME280;60605;53.716;19.940;2023-05-03T07:19:17;101328.42;;;32.95;22.69
57900;BME280;60605;53.716;19.940;2023-05-03T07:24:20;101334.64;;;33.41;22.25
57900;BME280;60605;53.716;19.940;2023-05-03T07:29:24;101334.60;;;33.67;21.47
57900;BME280;60605;53.716;19.940;2023-05-03T07:34:28;101334.48;;;33.86;20.84
57900;BME280;60605;53.716;19.940;2023-05-03T07:39:31;101327.91;;;34.25;20.34
57900;BME280;60605;53.716;19.940;2023-05-03T07:44:34;101328.21;;;34.33;19.64
57900;BME280;60605;53.716;19.940;2023-05-03T07:49:37;101329.57;;;34.41;19.70
57900;BME280;60605;53.716;19.940;2023-05-03T07:54:40;101331.73;;;34.58;19.39
57900;BME280;60605;53.716;19.940;2023-05-03T07:59:44;101331.07;;;34.81;18.50
57900;BME280;60605;53.716;19.940;2023-05-03T08:04:47;101328.80;;;34.52;18.02
57900;BME280;60605;53.716;19.940;2023-05-03T08:09:51;101329.80;;;34.74;18.22
57900;BME280;60605;53.716;19.940;2023-05-03T08:14:55;101332.83;;;34.99;17.92
57900;BME280;60605;53.716;19.940;2023-05-03T08:19:58;101332.84;;;35.24;18.23
57900;BME280;60605;53.716;19.940;2023-05-03T08:25:02;101330.02;;;35.75;18.05
57900;BME280;60605;53.716;19.940;2023-05-03T08:30:07;101333.68;;;36.07;17.17
57900;BME280;60605;53.716;19.940;2023-05-03T08:35:10;101342.03;;;36.25;17.36
57900;BME280;60605;53.716;19.940;2023-05-03T08:40:15;101343.80;;;36.16;16.83
57900;BME280;60605;53.716;19.940;2023-05-03T08:45:19;101341.70;;;36.03;17.00
57900;BME280;60605;53.716;19.940;2023-05-03T08:50:22;101344.55;;;35.85;15.70
57900;BME280;60605;53.716;19.940;2023-05-03T08:55:26;101347.03;;;35.11;15.72
57900;BME280;60605;53.716;19.940;2023-05-03T09:00:29;101349.80;;;34.69;16.61
57900;BME280;60605;53.716;19.940;2023-05-03T09:05:33;101352.98;;;34.64;16.28
57900;BME280;60605;53.716;19.940;2023-05-03T09:10:40;101363.06;;;34.25;15.81
57900;BME280;60605;53.716;19.940;2023-05-03T09:15:51;101369.65;;;34.13;16.46
57900;BME280;60605;53.716;19.940;2023-05-03T09:20:56;101366.13;;;34.48;15.76
57900;BME280;60605;53.716;19.940;2023-05-03T09:26:01;101360.08;;;34.61;16.22
57900;BME280;60605;53.716;19.940;2023-05-03T09:31:06;101360.13;;;34.62;16.41
57900;BME280;60605;53.716;19.940;2023-05-03T09:36:11;101361.33;;;34.52;15.82
57900;BME280;60605;53.716;19.940;2023-05-03T09:41:14;101362.23;;;34.16;16.17
57900;BME280;60605;53.716;19.940;2023-05-03T09:46:18;101362.04;;;33.86;17.00
57900;BME280;60605;53.716;19.940;2023-05-03T09:51:22;101357.84;;;34.09;17.82
57900;BME280;60605;53.716;19.940;2023-05-03T09:56:26;101356.27;;;33.66;16.87
57900;BME280;60605;53.716;19.940;2023-05-03T10:01:29;101352.70;;;31.26;18.06
57900;BME280;60605;53.716;19.940;2023-05-03T10:06:34;101351.63;;;29.96;19.01
57900;BME280;60605;53.716;19.940;2023-05-03T10:11:38;101348.55;;;28.19;21.39
57900;BME280;60605;53.716;19.940;2023-05-03T10:16:46;101347.55;;;26.44;22.55
57900;BME280;60605;53.716;19.940;2023-05-03T10:26:58;101345.21;;;23.59;26.57
57900;BME280;60605;53.716;19.940;2023-05-03T10:32:04;101335.02;;;22.89;28.27
57900;BME280;60605;53.716;19.940;2023-05-03T10:37:09;101334.65;;;21.97;28.06
57900;BME280;60605;53.716;19.940;2023-05-03T10:42:12;101335.65;;;21.14;28.77
57900;BME280;60605;53.716;19.940;2023-05-03T10:47:16;101337.13;;;20.45;29.94
57900;BME280;60605;53.716;19.940;2023-05-03T10:57:42;101339.67;;;19.30;32.39
57900;BME280;60605;53.716;19.940;2023-05-03T11:08:06;101332.04;;;18.59;34.19
57900;BME280;60605;53.716;19.940;2023-05-03T11:13:09;101340.05;;;18.00;33.20
57900;BME280;60605;53.716;19.940;2023-05-03T11:18:12;101340.22;;;17.98;34.19
57900;BME280;60605;53.716;19.940;2023-05-03T11:23:16;101338.61;;;18.27;33.59
57900;BME280;60605;53.716;19.940;2023-05-03T11:28:19;101343.42;;;17.96;33.39
57900;BME280;60605;53.716;19.940;2023-05-03T11:33:23;101346.37;;;17.25;33.33
57900;BME280;60605;53.716;19.940;2023-05-03T11:38:26;101354.75;;;16.37;34.69
57900;BME280;60605;53.716;19.940;2023-05-03T11:43:29;101351.45;;;16.18;36.26
57900;BME280;60605;53.716;19.940;2023-05-03T11:48:32;101342.67;;;16.61;36.59
57900;BME280;60605;53.716;19.940;2023-05-03T11:53:37;101340.79;;;17.30;35.55
57900;BME280;60605;53.716;19.940;2023-05-03T11:58:52;101340.77;;;18.00;34.93
57900;BME280;60605;53.716;19.940;2023-05-03T12:03:59;101343.33;;;18.48;33.74
57900;BME280;60605;53.716;19.940;2023-05-03T12:09:11;101339.86;;;18.72;32.61
57900;BME280;60605;53.716;19.940;2023-05-03T12:14:16;101343.54;;;18.83;32.43
57900;BME280;60605;53.716;19.940;2023-05-03T12:19:24;101346.02;;;18.48;33.18
57900;BME280;60605;53.716;19.940;2023-05-03T12:24:28;101351.02;;;17.67;34.37
57900;BME280;60605;53.716;19.940;2023-05-03T12:29:35;101357.39;;;17.17;35.81
57900;BME280;60605;53.716;19.940;2023-05-03T12:34:39;101357.51;;;17.01;36.07
57900;BME280;60605;53.716;19.940;2023-05-03T12:39:46;101353.41;;;16.70;36.69
57900;BME280;60605;53.716;19.940;2023-05-03T12:45:05;101353.89;;;16.62;36.95
57900;BME280;60605;53.716;19.940;2023-05-03T12:50:13;101360.36;;;16.56;37.45
57900;BME280;60605;53.716;19.940;2023-05-03T12:55:20;101355.23;;;16.65;37.11
57900;BME280;60605;53.716;19.940;2023-05-03T13:00:27;101357.38;;;16.60;35.78
57900;BME280;60605;53.716;19.940;2023-05-03T13:05:37;101357.78;;;16.53;34.38
57900;BME280;60605;53.716;19.940;2023-05-03T13:10:41;101356.55;;;16.51;33.66
57900;BME280;60605;53.716;19.940;2023-05-03T13:15:45;101351.35;;;16.39;34.08
57900;BME280;60605;53.716;19.940;2023-05-03T13:20:48;101352.66;;;16.32;34.56
57900;BME280;60605;53.716;19.940;2023-05-03T13:25:53;101353.33;;;16.27;35.07
57900;BME280;60605;53.716;19.940;2023-05-03T13:30:59;101344.61;;;16.16;35.11
57900;BME280;60605;53.716;19.940;2023-05-03T13:36:02;101340.38;;;16.09;34.73
57900;BME280;60605;53.716;19.940;2023-05-03T13:41:06;101338.23;;;16.19;35.35
57900;BME280;60605;53.716;19.940;2023-05-03T13:46:12;101334.30;;;16.53;34.49
57900;BME280;60605;53.716;19.940;2023-05-03T13:51:16;101335.09;;;16.64;34.71
57900;BME280;60605;53.716;19.940;2023-05-03T13:56:20;101331.66;;;16.63;34.11
57900;BME280;60605;53.716;19.940;2023-05-03T14:01:23;101327.58;;;16.83;33.91
57900;BME280;60605;53.716;19.940;2023-05-03T14:06:28;101327.26;;;17.17;33.66
57900;BME280;60605;53.716;19.940;2023-05-03T14:11:35;101323.52;;;17.44;33.29
57900;BME280;60605;53.716;19.940;2023-05-03T14:16:40;101321.98;;;17.51;32.61
57900;BME280;60605;53.716;19.940;2023-05-03T14:21:44;101327.73;;;17.29;32.26
57900;BME280;60605;53.716;19.940;2023-05-03T14:26:51;101331.63;;;17.18;32.51
57900;BME280;60605;53.716;19.940;2023-05-03T14:31:54;101331.25;;;17.04;32.73
57900;BME280;60605;53.716;19.940;2023-05-03T14:36:59;101334.67;;;17.17;33.78
57900;BME280;60605;53.716;19.940;2023-05-03T14:42:02;101337.90;;;17.48;33.17
57900;BME280;60605;53.716;19.940;2023-05-03T14:47:05;101333.28;;;17.63;32.53
57900;BME280;60605;53.716;19.940;2023-05-03T14:52:09;101334.30;;;17.81;32.37
57900;BME280;60605;53.716;19.940;2023-05-03T14:57:12;101332.80;;;17.91;31.58
57900;BME280;60605;53.716;19.940;2023-05-03T15:02:15;101335.02;;;17.94;32.08
57900;BME280;60605;53.716;19.940;2023-05-03T15:07:19;101332.90;;;17.98;32.09
57900;BME280;60605;53.716;19.940;2023-05-03T15:12:23;101336.95;;;17.97;31.41
57900;BME280;60605;53.716;19.940;2023-05-03T15:17:27;101342.45;;;17.79;30.31
57900;BME280;60605;53.716;19.940;2023-05-03T15:22:30;101343.91;;;17.67;31.60
57900;BME280;60605;53.716;19.940;2023-05-03T15:27:36;101340.67;;;17.63;32.35
57900;BME280;60605;53.716;19.940;2023-05-03T15:32:40;101341.05;;;17.50;31.88
57900;BME280;60605;53.716;19.940;2023-05-03T15:37:44;101341.84;;;17.35;32.44
57900;BME280;60605;53.716;19.940;2023-05-03T15:42:47;101344.07;;;17.21;32.17
57900;BME280;60605;53.716;19.940;2023-05-03T15:47:50;101349.48;;;17.01;32.20
57900;BME280;60605;53.716;19.940;2023-05-03T15:52:54;101349.59;;;16.88;33.17
57900;BME280;60605;53.716;19.940;2023-05-03T15:57:58;101349.38;;;16.74;32.35
57900;BME280;60605;53.716;19.940;2023-05-03T16:03:02;101350.34;;;16.48;32.68
57900;BME280;60605;53.716;19.940;2023-05-03T16:08:05;101349.17;;;16.31;33.22
57900;BME280;60605;53.716;19.940;2023-05-03T16:13:10;101343.39;;;16.11;33.02
57900;BME280;60605;53.716;19.940;2023-05-03T16:18:14;101339.44;;;15.96;33.52
57900;BME280;60605;53.716;19.940;2023-05-03T16:23:17;101343.08;;;15.78;33.93
57900;BME280;60605;53.716;19.940;2023-05-03T16:28:20;101348.54;;;15.52;34.13
57900;BME280;60605;53.716;19.940;2023-05-03T16:33:23;101350.53;;;15.31;34.48
57900;BME280;60605;53.716;19.940;2023-05-03T16:38:26;101349.73;;;15.05;34.54
57900;BME280;60605;53.716;19.940;2023-05-03T16:43:32;101349.84;;;14.85;34.92
57900;BME280;60605;53.716;19.940;2023-05-03T16:48:35;101349.27;;;14.70;35.33
57900;BME280;60605;53.716;19.940;2023-05-03T16:53:39;101352.25;;;14.54;35.78
57900;BME280;60605;53.716;19.940;2023-05-03T16:58:43;101350.90;;;14.37;35.98
57900;BME280;60605;53.716;19.940;2023-05-03T17:03:46;101348.33;;;14.17;35.98
57900;BME280;60605;53.716;19.940;2023-05-03T17:08:49;101346.02;;;13.98;36.15
57900;BME280;60605;53.716;19.940;2023-05-03T17:13:53;101347.23;;;13.81;36.76
57900;BME280;60605;53.716;19.940;2023-05-03T17:18:56;101351.04;;;13.64;37.54
57900;BME280;60605;53.716;19.940;2023-05-03T17:23:59;101351.27;;;13.44;37.99
57900;BME280;60605;53.716;19.940;2023-05-03T17:29:04;101355.33;;;13.25;38.36
57900;BME280;60605;53.716;19.940;2023-05-03T17:34:09;101359.39;;;13.06;38.63
57900;BME280;60605;53.716;19.940;2023-05-03T17:39:12;101360.73;;;12.86;38.94
57900;BME280;60605;53.716;19.940;2023-05-03T17:44:17;101361.10;;;12.63;39.43
57900;BME280;60605;53.716;19.940;2023-05-03T17:49:20;101359.55;;;12.36;40.17
57900;BME280;60605;53.716;19.940;2023-05-03T17:54:24;101358.29;;;12.11;40.96
57900;BME280;60605;53.716;19.940;2023-05-03T17:59:27;101363.37;;;11.86;41.81
57900;BME280;60605;53.716;19.940;2023-05-03T18:04:30;101362.27;;;11.57;43.54
57900;BME280;60605;53.716;19.940;2023-05-03T18:09:33;101368.48;;;11.27;44.43
57900;BME280;60605;53.716;19.940;2023-05-03T18:14:36;101374.10;;;10.95;44.73
57900;BME280;60605;53.716;19.940;2023-05-03T18:19:42;101376.13;;;10.62;45.46
57900;BME280;60605;53.716;19.940;2023-05-03T18:24:45;101373.86;;;10.36;46.55
57900;BME280;60605;53.716;19.940;2023-05-03T18:29:48;101377.05;;;10.11;47.43
57900;BME280;60605;53.716;19.940;2023-05-03T18:34:52;101385.80;;;9.87;48.54
57900;BME280;60605;53.716;19.940;2023-05-03T18:39:55;101394.42;;;9.61;49.48
57900;BME280;60605;53.716;19.940;2023-05-03T18:44:59;101402.27;;;9.36;50.58
57900;BME280;60605;53.716;19.940;2023-05-03T18:50:03;101407.06;;;9.11;51.95
57900;BME280;60605;53.716;19.940;2023-05-03T18:55:08;101413.71;;;8.87;53.59
57900;BME280;60605;53.716;19.940;2023-05-03T19:00:13;101414.04;;;8.63;55.15
57900;BME280;60605;53.716;19.940;2023-05-03T19:05:16;101419.30;;;8.43;55.97
57900;BME280;60605;53.716;19.940;2023-05-03T19:10:20;101422.11;;;8.29;56.63
57900;BME280;60605;53.716;19.940;2023-05-03T19:15:23;101425.55;;;8.20;57.47
57900;BME280;60605;53.716;19.940;2023-05-03T19:20:27;101421.58;;;8.14;58.20
57900;BME280;60605;53.716;19.940;2023-05-03T19:25:31;101418.87;;;8.09;58.49
57900;BME280;60605;53.716;19.940;2023-05-03T19:30:35;101423.16;;;8.04;58.55
57900;BME280;60605;53.716;19.940;2023-05-03T19:35:39;101425.41;;;8.00;58.93
57900;BME280;60605;53.716;19.940;2023-05-03T19:40:53;101423.79;;;7.98;59.38
57900;BME280;60605;53.716;19.940;2023-05-03T19:45:56;101423.95;;;7.90;60.37
57900;BME280;60605;53.716;19.940;2023-05-03T19:51:01;101423.73;;;7.81;60.83
57900;BME280;60605;53.716;19.940;2023-05-03T19:56:07;101424.55;;;7.69;61.64
57900;BME280;60605;53.716;19.940;2023-05-03T20:01:16;101428.13;;;7.56;62.25
57900;BME280;60605;53.716;19.940;2023-05-03T20:06:20;101428.42;;;7.47;62.63
57900;BME280;60605;53.716;19.940;2023-05-03T20:11:24;101432.98;;;7.37;63.15
57900;BME280;60605;53.716;19.940;2023-05-03T20:16:28;101433.02;;;7.27;63.71
57900;BME280;60605;53.716;19.940;2023-05-03T20:21:35;101432.60;;;7.17;64.13
57900;BME280;60605;53.716;19.940;2023-05-03T20:26:39;101434.16;;;7.07;64.50
57900;BME280;60605;53.716;19.940;2023-05-03T20:31:43;101436.17;;;6.93;65.09
57900;BME280;60605;53.716;19.940;2023-05-03T20:36:50;101438.89;;;6.73;65.87
57900;BME280;60605;53.716;19.940;2023-05-03T20:41:54;101436.96;;;6.54;66.76
57900;BME280;60605;53.716;19.940;2023-05-03T20:46:58;101439.17;;;6.33;67.83
57900;BME280;60605;53.716;19.940;2023-05-03T20:52:02;101434.19;;;6.12;68.47
57900;BME280;60605;53.716;19.940;2023-05-03T20:57:06;101433.20;;;5.91;68.68
57900;BME280;60605;53.716;19.940;2023-05-03T21:02:10;101438.00;;;5.73;69.15
57900;BME280;60605;53.716;19.940;2023-05-03T21:07:14;101441.71;;;5.56;69.84
57900;BME280;60605;53.716;19.940;2023-05-03T21:12:17;101438.81;;;5.39;70.55
57900;BME280;60605;53.716;19.940;2023-05-03T21:17:22;101438.73;;;5.23;71.45
57900;BME280;60605;53.716;19.940;2023-05-03T21:22:25;101445.23;;;5.09;71.90
57900;BME280;60605;53.716;19.940;2023-05-03T21:27:29;101447.62;;;4.98;72.53
57900;BME280;60605;53.716;19.940;2023-05-03T21:32:32;101451.23;;;4.91;73.39
57900;BME280;60605;53.716;19.940;2023-05-03T21:37:36;101450.41;;;4.89;74.35
57900;BME280;60605;53.716;19.940;2023-05-03T21:42:42;101450.41;;;4.93;75.29
57900;BME280;60605;53.716;19.940;2023-05-03T21:47:45;101452.39;;;4.98;75.71
57900;BME280;60605;53.716;19.940;2023-05-03T21:52:49;101449.05;;;5.04;75.89
57900;BME280;60605;53.716;19.940;2023-05-03T21:57:52;101451.11;;;5.11;76.48
57900;BME280;60605;53.716;19.940;2023-05-03T22:02:55;101449.08;;;5.16;76.50
57900;BME280;60605;53.716;19.940;2023-05-03T22:08:00;101451.14;;;5.16;76.15
57900;BME280;60605;53.716;19.940;2023-05-03T22:13:03;101449.94;;;5.16;75.96
57900;BME280;60605;53.716;19.940;2023-05-03T22:18:06;101452.25;;;5.19;76.71
57900;BME280;60605;53.716;19.940;2023-05-03T22:23:09;101450.37;;;5.20;76.60
57900;BME280;60605;53.716;19.940;2023-05-03T22:28:13;101446.83;;;5.15;76.63
57900;BME280;60605;53.716;19.940;2023-05-03T22:33:16;101449.20;;;5.04;77.02
57900;BME280;60605;53.716;19.940;2023-05-03T22:38:19;101450.39;;;4.93;77.52
57900;BME280;60605;53.716;19.940;2023-05-03T22:43:22;101450.48;;;4.82;77.61
57900;BME280;60605;53.716;19.940;2023-05-03T22:48:25;101451.35;;;4.70;78.14
57900;BME280;60605;53.716;19.940;2023-05-03T22:53:31;101445.55;;;4.57;78.76
57900;BME280;60605;53.716;19.940;2023-05-03T22:58:34;101439.80;;;4.46;79.24
57900;BME280;60605;53.716;19.940;2023-05-03T23:03:37;101437.50;;;4.37;79.66
57900;BME280;60605;53.716;19.940;2023-05-03T23:08:40;101432.28;;;4.26;79.56
57900;BME280;60605;53.716;19.940;2023-05-03T23:13:43;101435.11;;;4.13;79.94
57900;BME280;60605;53.716;19.940;2023-05-03T23:18:46;101433.65;;;4.01;80.68
57900;BME280;60605;53.716;19.940;2023-05-03T23:23:50;101434.95;;;3.90;81.33
57900;BME280;60605;53.716;19.940;2023-05-03T23:28:53;101436.15;;;3.78;81.60
57900;BME280;60605;53.716;19.940;2023-05-03T23:33:57;101435.09;;;3.64;82.27
57900;BME280;60605;53.716;19.940;2023-05-03T23:38:59;101431.33;;;3.55;82.64
57900;BME280;60605;53.716;19.940;2023-05-03T23:44:03;101426.98;;;3.47;83.49
57900;BME280;60605;53.716;19.940;2023-05-03T23:49:06;101423.95;;;3.41;84.13
57900;BME280;60605;53.716;19.940;2023-05-03T23:54:09;101422.52;;;3.35;84.36
57900;BME280;60605;53.716;19.940;2023-05-03T23:59:12;101421.48;;;3.28;84.58
